Laredo, Missouri
Current Conditions -  °F | °C
As of 8:55 AM on Wednesday 22 Oct 2014 (Local Time) from KIRK Reporting Station
Clear Clear  
Wind Chill: 40°   Ceiling: Unl
Heat Index: 45°   Visibility: 10mi
Dew Point: 42°   Wind: 10mph
Humidity: 90%   Direction: 130°SE
Pressure: 30.29"   Gusts: NA
Location:  40.03°N, 93.45°W
Report Text: KIRK 221355Z AUTO 13009KT 10SM CLR 07/06 A3029 RMK AO2 SLP264 T00720056
Loading
Personal Weather Stations






























Interactive Weather Map New forecast layout! Learn more

10-Day Weather Forecast

Advertisements
Track Severe Weather on mobile